sensor_id;sensor_type;location;lat;lon;timestamp;pressure;altitude;pressure_sealevel;temperature;humidity
79540;BME280;74475;52.122;5.406;2024-01-27T00:01:56;103554.94;;;19.98;54.58
79540;BME280;74475;52.122;5.406;2024-01-27T00:04:22;103551.31;;;19.97;54.94
79540;BME280;74475;52.122;5.406;2024-01-27T00:06:49;103557.78;;;19.95;54.60
79540;BME280;74475;52.122;5.406;2024-01-27T00:09:16;103555.06;;;19.95;54.53
79540;BME280;74475;52.122;5.406;2024-01-27T00:11:42;103562.44;;;19.93;54.76
79540;BME280;74475;52.122;5.406;2024-01-27T00:14:09;103555.22;;;19.92;54.70
79540;BME280;74475;52.122;5.406;2024-01-27T00:16:35;103565.31;;;19.90;54.54
79540;BME280;74475;52.122;5.406;2024-01-27T00:19:02;103564.56;;;19.86;54.40
79540;BME280;74475;52.122;5.406;2024-01-27T00:21:29;103560.22;;;19.82;54.60
79540;BME280;74475;52.122;5.406;2024-01-27T00:23:55;103557.53;;;19.80;54.60
79540;BME280;74475;52.122;5.406;2024-01-27T00:26:27;103561.28;;;19.78;54.40
79540;BME280;74475;52.122;5.406;2024-01-27T00:28:54;103560.53;;;19.74;54.94
79540;BME280;74475;52.122;5.406;2024-01-27T00:31:20;103562.47;;;19.72;54.68
79540;BME280;74475;52.122;5.406;2024-01-27T00:33:47;103555.28;;;19.70;54.61
79540;BME280;74475;52.122;5.406;2024-01-27T00:36:14;103555.44;;;19.67;54.47
79540;BME280;74475;52.122;5.406;2024-01-27T00:38:40;103560.97;;;19.65;54.31
79540;BME280;74475;52.122;5.406;2024-01-27T00:41:07;103562.88;;;19.63;54.66
79540;BME280;74475;52.122;5.406;2024-01-27T00:43:35;103565.69;;;19.62;54.45
79540;BME280;74475;52.122;5.406;2024-01-27T00:46:02;103559.38;;;19.60;54.60
79540;BME280;74475;52.122;5.406;2024-01-27T00:48:28;103562.19;;;19.58;54.29
79540;BME280;74475;52.122;5.406;2024-01-27T00:50:55;103558.63;;;19.56;54.87
79540;BME280;74475;52.122;5.406;2024-01-27T00:53:22;103554.19;;;19.54;54.48
79540;BME280;74475;52.122;5.406;2024-01-27T00:55:48;103547.94;;;19.52;54.28
79540;BME280;74475;52.122;5.406;2024-01-27T00:58:16;103565.25;;;19.51;54.49
79540;BME280;74475;52.122;5.406;2024-01-27T01:00:43;103558.09;;;19.48;54.66
79540;BME280;74475;52.122;5.406;2024-01-27T01:03:09;103560.00;;;19.46;54.59
79540;BME280;74475;52.122;5.406;2024-01-27T01:05:36;103560.00;;;19.46;54.51
79540;BME280;74475;52.122;5.406;2024-01-27T01:08:02;103560.13;;;19.43;54.56
79540;BME280;74475;52.122;5.406;2024-01-27T01:10:29;103561.97;;;19.43;54.30
79540;BME280;74475;52.122;5.406;2024-01-27T01:12:56;103562.97;;;19.40;54.43
79540;BME280;74475;52.122;5.406;2024-01-27T01:15:22;103564.78;;;19.39;54.47
79540;BME280;74475;52.122;5.406;2024-01-27T01:17:49;103567.56;;;19.38;54.39
79540;BME280;74475;52.122;5.406;2024-01-27T01:20:15;103570.41;;;19.36;54.34
79540;BME280;74475;52.122;5.406;2024-01-27T01:22:42;103575.00;;;19.34;54.93
79540;BME280;74475;52.122;5.406;2024-01-27T01:25:08;103572.38;;;19.33;54.40
79540;BME280;74475;52.122;5.406;2024-01-27T01:27:35;103578.75;;;19.32;54.42
79540;BME280;74475;52.122;5.406;2024-01-27T01:30:01;103576.97;;;19.31;54.43
79540;BME280;74475;52.122;5.406;2024-01-27T01:32:28;103572.56;;;19.28;54.48
79540;BME280;74475;52.122;5.406;2024-01-27T01:34:54;103563.56;;;19.26;54.18
79540;BME280;74475;52.122;5.406;2024-01-27T01:37:21;103565.41;;;19.26;54.19
79540;BME280;74475;52.122;5.406;2024-01-27T01:39:47;103568.19;;;19.24;53.97
79540;BME280;74475;52.122;5.406;2024-01-27T01:42:13;103563.75;;;19.22;54.53
79540;BME280;74475;52.122;5.406;2024-01-27T01:44:40;103559.22;;;19.21;54.31
79540;BME280;74475;52.122;5.406;2024-01-27T01:47:07;103566.59;;;19.19;54.22
79540;BME280;74475;52.122;5.406;2024-01-27T01:49:35;103563.03;;;19.17;54.21
79540;BME280;74475;52.122;5.406;2024-01-27T01:52:02;103568.56;;;19.15;54.18
79540;BME280;74475;52.122;5.406;2024-01-27T01:54:29;103568.63;;;19.14;54.19
79540;BME280;74475;52.122;5.406;2024-01-27T01:56:58;103576.88;;;19.12;54.22
79540;BME280;74475;52.122;5.406;2024-01-27T01:59:25;103581.47;;;19.12;54.29
79540;BME280;74475;52.122;5.406;2024-01-27T02:01:51;103577.88;;;19.10;54.18
79540;BME280;74475;52.122;5.406;2024-01-27T02:04:18;103587.97;;;19.08;54.27
79540;BME280;74475;52.122;5.406;2024-01-27T02:06:44;103581.72;;;19.06;54.11
79540;BME280;74475;52.122;5.406;2024-01-27T02:09:11;103572.66;;;19.05;54.15
79540;BME280;74475;52.122;5.406;2024-01-27T02:11:37;103579.94;;;19.05;54.17
79540;BME280;74475;52.122;5.406;2024-01-27T02:14:04;103573.72;;;19.01;54.16
79540;BME280;74475;52.122;5.406;2024-01-27T02:16:30;103576.44;;;19.01;54.01
79540;BME280;74475;52.122;5.406;2024-01-27T02:18:57;103575.59;;;18.99;54.26
79540;BME280;74475;52.122;5.406;2024-01-27T02:21:24;103568.41;;;18.98;53.63
79540;BME280;74475;52.122;5.406;2024-01-27T02:23:50;103572.13;;;18.96;54.12
79540;BME280;74475;52.122;5.406;2024-01-27T02:26:16;103573.97;;;18.95;53.95
79540;BME280;74475;52.122;5.406;2024-01-27T02:28:43;103565.03;;;18.92;54.13
79540;BME280;74475;52.122;5.406;2024-01-27T02:31:09;103577.78;;;18.91;53.98
79540;BME280;74475;52.122;5.406;2024-01-27T02:33:36;103573.28;;;18.90;53.90
79540;BME280;74475;52.122;5.406;2024-01-27T02:36:03;103568.75;;;18.89;53.92
79540;BME280;74475;52.122;5.406;2024-01-27T02:38:29;103571.56;;;18.87;53.78
79540;BME280;74475;52.122;5.406;2024-01-27T02:40:55;103564.38;;;18.85;53.91
79540;BME280;74475;52.122;5.406;2024-01-27T02:43:22;103565.34;;;18.84;54.12
79540;BME280;74475;52.122;5.406;2024-01-27T02:45:48;103572.63;;;18.83;54.19
79540;BME280;74475;52.122;5.406;2024-01-27T02:48:15;103573.56;;;18.82;54.21
79540;BME280;74475;52.122;5.406;2024-01-27T02:50:41;103584.56;;;18.81;53.25
79540;BME280;74475;52.122;5.406;2024-01-27T02:53:08;103578.25;;;18.79;53.94
79540;BME280;74475;52.122;5.406;2024-01-27T02:55:34;103580.09;;;18.78;53.56
79540;BME280;74475;52.122;5.406;2024-01-27T02:58:01;103584.78;;;18.75;53.60
79540;BME280;74475;52.122;5.406;2024-01-27T03:00:27;103575.72;;;18.74;53.71
79540;BME280;74475;52.122;5.406;2024-01-27T03:02:54;103583.91;;;18.74;53.73
79540;BME280;74475;52.122;5.406;2024-01-27T03:05:23;103575.84;;;18.71;53.64
79540;BME280;74475;52.122;5.406;2024-01-27T03:07:49;103576.81;;;18.70;53.53
79540;BME280;74475;52.122;5.406;2024-01-27T03:10:16;103590.44;;;18.70;53.68
79540;BME280;74475;52.122;5.406;2024-01-27T03:12:42;103581.41;;;18.68;53.64
79540;BME280;74475;52.122;5.406;2024-01-27T03:15:09;103579.63;;;18.67;53.75
79540;BME280;74475;52.122;5.406;2024-01-27T03:17:36;103586.09;;;18.65;53.73
79540;BME280;74475;52.122;5.406;2024-01-27T03:20:02;103580.66;;;18.65;53.59
79540;BME280;74475;52.122;5.406;2024-01-27T03:22:29;103583.47;;;18.63;53.67
79540;BME280;74475;52.122;5.406;2024-01-27T03:24:55;103574.44;;;18.61;53.76
79540;BME280;74475;52.122;5.406;2024-01-27T03:27:22;103569.94;;;18.60;53.45
79540;BME280;74475;52.122;5.406;2024-01-27T03:29:48;103576.34;;;18.59;53.44
79540;BME280;74475;52.122;5.406;2024-01-27T03:32:15;103580.97;;;18.57;53.54
79540;BME280;74475;52.122;5.406;2024-01-27T03:34:44;103575.59;;;18.56;53.46
79540;BME280;74475;52.122;5.406;2024-01-27T03:37:13;103574.69;;;18.55;53.61
79540;BME280;74475;52.122;5.406;2024-01-27T03:39:42;103570.19;;;18.54;53.82
79540;BME280;74475;52.122;5.406;2024-01-27T03:42:09;103575.72;;;18.53;53.55
79540;BME280;74475;52.122;5.406;2024-01-27T03:44:35;103573.03;;;18.51;53.50
79540;BME280;74475;52.122;5.406;2024-01-27T03:47:02;103571.22;;;18.50;53.56
79540;BME280;74475;52.122;5.406;2024-01-27T03:49:29;103582.19;;;18.49;53.37
79540;BME280;74475;52.122;5.406;2024-01-27T03:51:55;103584.91;;;18.49;53.39
79540;BME280;74475;52.122;5.406;2024-01-27T03:54:21;103595.84;;;18.47;53.48
79540;BME280;74475;52.122;5.406;2024-01-27T03:56:48;103594.06;;;18.46;53.19
79540;BME280;74475;52.122;5.406;2024-01-27T03:59:14;103595.03;;;18.45;53.44
79540;BME280;74475;52.122;5.406;2024-01-27T04:01:41;103599.59;;;18.45;53.26
79540;BME280;74475;52.122;5.406;2024-01-27T04:04:07;103597.00;;;18.42;53.23
79540;BME280;74475;52.122;5.406;2024-01-27T04:06:38;103590.66;;;18.41;53.23
79540;BME280;74475;52.122;5.406;2024-01-27T04:09:06;103590.69;;;18.39;53.25
79540;BME280;74475;52.122;5.406;2024-01-27T04:11:36;103589.81;;;18.39;53.37
79540;BME280;74475;52.122;5.406;2024-01-27T04:14:04;103594.44;;;18.37;53.37
79540;BME280;74475;52.122;5.406;2024-01-27T04:16:31;103602.63;;;18.37;53.40
79540;BME280;74475;52.122;5.406;2024-01-27T04:18:58;103602.66;;;18.35;53.33
79540;BME280;74475;52.122;5.406;2024-01-27T04:21:24;103600.00;;;18.34;53.40
79540;BME280;74475;52.122;5.406;2024-01-27T04:23:51;103593.66;;;18.33;53.31
79540;BME280;74475;52.122;5.406;2024-01-27T04:26:18;103597.34;;;18.32;53.19
79540;BME280;74475;52.122;5.406;2024-01-27T04:28:44;103593.72;;;18.32;53.52
79540;BME280;74475;52.122;5.406;2024-01-27T04:31:11;103595.63;;;18.30;53.28
79540;BME280;74475;52.122;5.406;2024-01-27T04:33:38;103601.06;;;18.30;53.17
79540;BME280;74475;52.122;5.406;2024-01-27T04:36:04;103604.72;;;18.29;53.23
79540;BME280;74475;52.122;5.406;2024-01-27T04:38:33;103601.19;;;18.27;53.21
79540;BME280;74475;52.122;5.406;2024-01-27T04:40:59;103614.84;;;18.25;53.52
79540;BME280;74475;52.122;5.406;2024-01-27T04:43:26;103606.69;;;18.25;53.41
79540;BME280;74475;52.122;5.406;2024-01-27T04:45:52;103609.47;;;18.24;53.02
79540;BME280;74475;52.122;5.406;2024-01-27T04:48:19;103610.41;;;18.23;53.47
79540;BME280;74475;52.122;5.406;2024-01-27T04:50:45;103611.34;;;18.22;53.23
79540;BME280;74475;52.122;5.406;2024-01-27T04:53:13;103609.59;;;18.21;53.15
79540;BME280;74475;52.122;5.406;2024-01-27T04:55:39;103609.66;;;18.19;53.25
79540;BME280;74475;52.122;5.406;2024-01-27T04:58:06;103615.13;;;18.18;53.28
79540;BME280;74475;52.122;5.406;2024-01-27T05:00:33;103610.56;;;18.18;53.09
79540;BME280;74475;52.122;5.406;2024-01-27T05:03:00;103611.56;;;18.17;53.03
79540;BME280;74475;52.122;5.406;2024-01-27T05:05:31;103612.47;;;18.16;53.14
79540;BME280;74475;52.122;5.406;2024-01-27T05:08:02;103607.09;;;18.15;53.36
79540;BME280;74475;52.122;5.406;2024-01-27T05:10:28;103605.31;;;18.14;53.44
79540;BME280;74475;52.122;5.406;2024-01-27T05:12:55;103613.53;;;18.12;53.20
79540;BME280;74475;52.122;5.406;2024-01-27T05:15:22;103618.09;;;18.12;52.88
79540;BME280;74475;52.122;5.406;2024-01-27T05:17:49;103607.19;;;18.12;52.87
79540;BME280;74475;52.122;5.406;2024-01-27T05:20:15;103603.66;;;18.10;53.39
79540;BME280;74475;52.122;5.406;2024-01-27T05:22:42;103589.19;;;18.08;52.85
79540;BME280;74475;52.122;5.406;2024-01-27T05:25:08;103594.63;;;18.08;52.81
79540;BME280;74475;52.122;5.406;2024-01-27T05:27:37;103592.00;;;18.06;52.94
79540;BME280;74475;52.122;5.406;2024-01-27T05:30:06;103575.66;;;18.06;53.19
79540;BME280;74475;52.122;5.406;2024-01-27T05:32:32;103584.81;;;18.04;53.32
79540;BME280;74475;52.122;5.406;2024-01-27T05:34:59;103585.78;;;18.03;53.14
79540;BME280;74475;52.122;5.406;2024-01-27T05:37:25;103584.88;;;18.02;53.13
79540;BME280;74475;52.122;5.406;2024-01-27T05:39:52;103584.00;;;18.02;52.87
79540;BME280;74475;52.122;5.406;2024-01-27T05:42:19;103594.03;;;18.00;53.09
79540;BME280;74475;52.122;5.406;2024-01-27T05:44:45;103596.75;;;18.00;52.97
79540;BME280;74475;52.122;5.406;2024-01-27T05:47:11;103578.66;;;17.99;52.92
79540;BME280;74475;52.122;5.406;2024-01-27T05:49:38;103588.69;;;17.97;53.13
79540;BME280;74475;52.122;5.406;2024-01-27T05:52:05;103590.53;;;17.96;53.01
79540;BME280;74475;52.122;5.406;2024-01-27T05:54:31;103590.53;;;17.96;53.18
79540;BME280;74475;52.122;5.406;2024-01-27T05:56:58;103589.72;;;17.94;52.98
79540;BME280;74475;52.122;5.406;2024-01-27T05:59:25;103590.66;;;17.93;52.92
79540;BME280;74475;52.122;5.406;2024-01-27T06:01:51;103595.19;;;17.92;53.14
79540;BME280;74475;52.122;5.406;2024-01-27T06:04:18;103588.94;;;17.90;52.92
79540;BME280;74475;52.122;5.406;2024-01-27T06:06:44;103588.94;;;17.90;52.82
79540;BME280;74475;52.122;5.406;2024-01-27T06:09:11;103581.72;;;17.89;52.83
79540;BME280;74475;52.122;5.406;2024-01-27T06:11:38;103587.22;;;17.88;52.78
79540;BME280;74475;52.122;5.406;2024-01-27T06:14:04;103588.13;;;17.88;52.96
79540;BME280;74475;52.122;5.406;2024-01-27T06:16:31;103589.97;;;17.86;52.69
79540;BME280;74475;52.122;5.406;2024-01-27T06:18:57;103597.25;;;17.86;52.91
79540;BME280;74475;52.122;5.406;2024-01-27T06:21:24;103597.34;;;17.84;53.05
79540;BME280;74475;52.122;5.406;2024-01-27T06:23:51;103599.16;;;17.84;52.94
79540;BME280;74475;52.122;5.406;2024-01-27T06:26:18;103601.00;;;17.83;53.02
79540;BME280;74475;52.122;5.406;2024-01-27T06:28:44;103599.19;;;17.82;52.60
79540;BME280;74475;52.122;5.406;2024-01-27T06:31:11;103592.00;;;17.81;53.07
79540;BME280;74475;52.122;5.406;2024-01-27T06:33:38;103594.75;;;17.80;52.96
79540;BME280;74475;52.122;5.406;2024-01-27T06:36:05;103595.66;;;17.80;52.84
79540;BME280;74475;52.122;5.406;2024-01-27T06:38:31;103599.31;;;17.79;52.95
79540;BME280;74475;52.122;5.406;2024-01-27T06:40:58;103608.41;;;17.78;53.41
79540;BME280;74475;52.122;5.406;2024-01-27T06:43:24;103599.38;;;17.78;53.11
79540;BME280;74475;52.122;5.406;2024-01-27T06:45:51;103592.19;;;17.75;53.03
79540;BME280;74475;52.122;5.406;2024-01-27T06:48:17;103598.53;;;17.76;52.98
79540;BME280;74475;52.122;5.406;2024-01-27T06:50:44;103596.75;;;17.75;53.22
79540;BME280;74475;52.122;5.406;2024-01-27T06:53:10;103597.72;;;17.74;52.94
79540;BME280;74475;52.122;5.406;2024-01-27T06:55:37;103603.19;;;17.72;52.84
79540;BME280;74475;52.122;5.406;2024-01-27T06:58:08;103598.69;;;17.71;52.91
79540;BME280;74475;52.122;5.406;2024-01-27T07:00:35;103613.19;;;17.72;52.77
79540;BME280;74475;52.122;5.406;2024-01-27T07:03:01;103606.00;;;17.71;53.05
79540;BME280;74475;52.122;5.406;2024-01-27T07:05:29;103609.66;;;17.70;52.78
79540;BME280;74475;52.122;5.406;2024-01-27T07:07:56;103606.03;;;17.69;52.96
79540;BME280;74475;52.122;5.406;2024-01-27T07:10:22;103611.50;;;17.68;52.90
79540;BME280;74475;52.122;5.406;2024-01-27T07:12:49;103622.47;;;17.66;53.31
79540;BME280;74475;52.122;5.406;2024-01-27T07:15:15;103619.75;;;17.66;52.93
79540;BME280;74475;52.122;5.406;2024-01-27T07:17:42;103627.06;;;17.64;52.82
79540;BME280;74475;52.122;5.406;2024-01-27T07:20:09;103629.78;;;17.64;52.93
79540;BME280;74475;52.122;5.406;2024-01-27T07:22:36;103630.75;;;17.63;52.49
79540;BME280;74475;52.122;5.406;2024-01-27T07:25:03;103628.06;;;17.62;52.90
79540;BME280;74475;52.122;5.406;2024-01-27T07:27:29;103637.16;;;17.61;53.19
79540;BME280;74475;52.122;5.406;2024-01-27T07:29:56;103637.16;;;17.61;52.50
79540;BME280;74475;52.122;5.406;2024-01-27T07:32:23;103639.94;;;17.59;52.91
79540;BME280;74475;52.122;5.406;2024-01-27T07:34:49;103636.34;;;17.59;52.79
79540;BME280;74475;52.122;5.406;2024-01-27T07:37:16;103636.38;;;17.57;52.96
79540;BME280;74475;52.122;5.406;2024-01-27T07:39:42;103640.94;;;17.57;53.19
79540;BME280;74475;52.122;5.406;2024-01-27T07:42:08;103640.06;;;17.56;53.05
79540;BME280;74475;52.122;5.406;2024-01-27T07:44:36;103640.97;;;17.55;52.82
79540;BME280;74475;52.122;5.406;2024-01-27T07:47:02;103651.84;;;17.55;52.81
79540;BME280;74475;52.122;5.406;2024-01-27T07:49:29;103649.13;;;17.55;52.81
79540;BME280;74475;52.122;5.406;2024-01-27T07:51:56;103646.44;;;17.54;52.60
79540;BME280;74475;52.122;5.406;2024-01-27T07:54:22;103651.06;;;17.52;52.81
79540;BME280;74475;52.122;5.406;2024-01-27T07:56:49;103652.88;;;17.51;52.85
79540;BME280;74475;52.122;5.406;2024-01-27T07:59:15;103658.31;;;17.51;52.98
79540;BME280;74475;52.122;5.406;2024-01-27T08:01:42;103648.34;;;17.52;52.83
79540;BME280;74475;52.122;5.406;2024-01-27T08:04:09;103653.66;;;17.55;53.21
79540;BME280;74475;52.122;5.406;2024-01-27T08:06:47;103653.59;;;17.58;53.32
79540;BME280;74475;52.122;5.406;2024-01-27T08:09:14;103659.81;;;17.61;53.23
79540;BME280;74475;52.122;5.406;2024-01-27T08:11:41;103663.38;;;17.63;53.36
79540;BME280;74475;52.122;5.406;2024-01-27T08:14:08;103660.50;;;17.68;53.34
79540;BME280;74475;52.122;5.406;2024-01-27T08:16:35;103654.97;;;17.71;53.30
79540;BME280;74475;52.122;5.406;2024-01-27T08:19:01;103653.97;;;17.73;53.48
79540;BME280;74475;52.122;5.406;2024-01-27T08:21:28;103652.06;;;17.75;53.55
79540;BME280;74475;52.122;5.406;2024-01-27T08:23:55;103656.56;;;17.76;53.73
79540;BME280;74475;52.122;5.406;2024-01-27T08:26:21;103664.63;;;17.79;53.25
79540;BME280;74475;52.122;5.406;2024-01-27T08:28:48;103658.13;;;17.83;53.60
79540;BME280;74475;52.122;5.406;2024-01-27T08:31:15;103669.84;;;17.85;53.23
79540;BME280;74475;52.122;5.406;2024-01-27T08:33:42;103662.47;;;17.89;53.78
79540;BME280;74475;52.122;5.406;2024-01-27T08:36:13;103661.53;;;17.90;53.47
79540;BME280;74475;52.122;5.406;2024-01-27T08:38:40;103665.97;;;17.92;53.48
79540;BME280;74475;52.122;5.406;2024-01-27T08:41:07;103662.19;;;17.97;53.86
79540;BME280;74475;52.122;5.406;2024-01-27T08:43:33;103652.94;;;18.02;53.24
79540;BME280;74475;52.122;5.406;2024-01-27T08:46:00;103654.59;;;18.06;53.23
79540;BME280;74475;52.122;5.406;2024-01-27T08:48:26;103664.44;;;18.10;53.33
79540;BME280;74475;52.122;5.406;2024-01-27T08:50:53;103657.09;;;18.12;53.19
79540;BME280;74475;52.122;5.406;2024-01-27T08:53:19;103664.22;;;18.16;53.26
79540;BME280;74475;52.122;5.406;2024-01-27T08:55:46;103657.72;;;18.20;53.42
79540;BME280;74475;52.122;5.406;2024-01-27T08:58:12;103665.78;;;18.23;53.19
79540;BME280;74475;52.122;5.406;2024-01-27T09:00:39;103669.28;;;18.27;53.12
79540;BME280;74475;52.122;5.406;2024-01-27T09:03:05;103677.31;;;18.30;52.77
79540;BME280;74475;52.122;5.406;2024-01-27T09:05:32;103675.38;;;18.33;52.85
79540;BME280;74475;52.122;5.406;2024-01-27T09:07:58;103676.09;;;18.38;52.73
79540;BME280;74475;52.122;5.406;2024-01-27T09:10:25;103672.28;;;18.42;52.42
79540;BME280;74475;52.122;5.406;2024-01-27T09:12:51;103676.75;;;18.45;52.02
79540;BME280;74475;52.122;5.406;2024-01-27T09:15:18;103669.66;;;18.41;52.43
79540;BME280;74475;52.122;5.406;2024-01-27T09:17:44;103678.75;;;18.40;52.72
79540;BME280;74475;52.122;5.406;2024-01-27T09:20:11;103676.03;;;18.40;52.52
79540;BME280;74475;52.122;5.406;2024-01-27T09:22:37;103681.38;;;18.43;52.72
79540;BME280;74475;52.122;5.406;2024-01-27T09:25:04;103683.19;;;18.42;52.20
79540;BME280;74475;52.122;5.406;2024-01-27T09:27:31;103685.06;;;18.42;52.30
79540;BME280;74475;52.122;5.406;2024-01-27T09:29:57;103689.50;;;18.45;52.59
79540;BME280;74475;52.122;5.406;2024-01-27T09:32:24;103679.38;;;18.48;51.79
79540;BME280;74475;52.122;5.406;2024-01-27T09:34:50;103685.50;;;18.55;52.00
79540;BME280;74475;52.122;5.406;2024-01-27T09:37:20;103689.91;;;18.59;51.99
79540;BME280;74475;52.122;5.406;2024-01-27T09:39:46;103697.13;;;18.60;51.73
79540;BME280;74475;52.122;5.406;2024-01-27T09:42:13;103703.44;;;18.60;51.92
79540;BME280;74475;52.122;5.406;2024-01-27T09:44:43;103707.97;;;18.61;51.65
79540;BME280;74475;52.122;5.406;2024-01-27T10:00:04;103726.13;;;18.61;51.78
79540;BME280;74475;52.122;5.406;2024-01-27T10:02:32;103737.16;;;18.58;51.80
79540;BME280;74475;52.122;5.406;2024-01-27T10:05:01;103743.53;;;18.57;51.89
79540;BME280;74475;52.122;5.406;2024-01-27T10:07:27;103745.34;;;18.58;52.06
79540;BME280;74475;52.122;5.406;2024-01-27T10:09:54;103737.16;;;18.58;52.02
79540;BME280;74475;52.122;5.406;2024-01-27T10:12:20;103732.59;;;18.58;52.00
79540;BME280;74475;52.122;5.406;2024-01-27T10:14:49;103727.09;;;18.60;52.17
79540;BME280;74475;52.122;5.406;2024-01-27T10:17:24;103734.38;;;18.59;52.40
79540;BME280;74475;52.122;5.406;2024-01-27T10:20:01;103742.59;;;18.58;52.35
79540;BME280;74475;52.122;5.406;2024-01-27T10:22:40;103730.81;;;18.57;52.22
79540;BME280;74475;52.122;5.406;2024-01-27T10:25:07;103738.16;;;18.55;52.31
79540;BME280;74475;52.122;5.406;2024-01-27T10:27:34;103732.75;;;18.54;52.20
79540;BME280;74475;52.122;5.406;2024-01-27T10:30:02;103735.50;;;18.54;52.41
79540;BME280;74475;52.122;5.406;2024-01-27T10:32:28;103744.63;;;18.53;52.42
79540;BME280;74475;52.122;5.406;2024-01-27T10:35:05;103751.00;;;18.52;52.32
79540;BME280;74475;52.122;5.406;2024-01-27T10:37:31;103757.44;;;18.49;52.33
79540;BME280;74475;52.122;5.406;2024-01-27T10:40:07;103750.13;;;18.50;52.43
79540;BME280;74475;52.122;5.406;2024-01-27T10:42:35;103752.84;;;18.50;52.52
79540;BME280;74475;52.122;5.406;2024-01-27T10:45:03;103763.75;;;18.50;52.40
79540;BME280;74475;52.122;5.406;2024-01-27T10:47:31;103759.31;;;18.47;52.06
79540;BME280;74475;52.122;5.406;2024-01-27T10:49:59;103746.63;;;18.46;51.91
79540;BME280;74475;52.122;5.406;2024-01-27T10:52:31;103743.97;;;18.45;52.31
79540;BME280;74475;52.122;5.406;2024-01-27T10:54:59;103734.00;;;18.44;52.16
79540;BME280;74475;52.122;5.406;2024-01-27T10:57:29;103732.22;;;18.42;52.11
79540;BME280;74475;52.122;5.406;2024-01-27T10:59:57;103722.34;;;18.40;52.03
79540;BME280;74475;52.122;5.406;2024-01-27T11:02:24;103723.34;;;18.37;51.95
79540;BME280;74475;52.122;5.406;2024-01-27T11:04:51;103719.72;;;18.37;52.14
79540;BME280;74475;52.122;5.406;2024-01-27T11:07:23;103722.56;;;18.34;52.30
79540;BME280;74475;52.122;5.406;2024-01-27T11:09:50;103725.28;;;18.34;52.29
79540;BME280;74475;52.122;5.406;2024-01-27T11:12:21;103733.59;;;18.31;52.21
79540;BME280;74475;52.122;5.406;2024-01-27T11:14:49;103713.66;;;18.29;52.12
79540;BME280;74475;52.122;5.406;2024-01-27T11:17:16;103713.75;;;18.27;52.45
79540;BME280;74475;52.122;5.406;2024-01-27T11:19:44;103723.63;;;18.30;52.71
79540;BME280;74475;52.122;5.406;2024-01-27T11:37:15;103707.78;;;18.66;53.88
79540;BME280;74475;52.122;5.406;2024-01-27T11:39:41;103709.47;;;18.70;54.17
79540;BME280;74475;52.122;5.406;2024-01-27T11:42:10;103705.56;;;18.77;54.19
79540;BME280;74475;52.122;5.406;2024-01-27T11:44:41;103702.53;;;18.84;53.87
79540;BME280;74475;52.122;5.406;2024-01-27T11:47:16;103694.00;;;18.94;53.94
79540;BME280;74475;52.122;5.406;2024-01-27T11:49:43;103703.66;;;19.02;53.86
79540;BME280;74475;52.122;5.406;2024-01-27T11:52:11;103686.03;;;19.11;53.70
79540;BME280;74475;52.122;5.406;2024-01-27T11:54:38;103685.66;;;19.20;53.54
79540;BME280;74475;52.122;5.406;2024-01-27T11:57:04;103686.09;;;19.31;53.04
79540;BME280;74475;52.122;5.406;2024-01-27T11:59:33;103683.84;;;19.42;53.21
79540;BME280;74475;52.122;5.406;2024-01-27T12:02:03;103681.56;;;19.53;53.00
79540;BME280;74475;52.122;5.406;2024-01-27T12:04:29;103679.41;;;19.61;52.71
79540;BME280;74475;52.122;5.406;2024-01-27T12:06:56;103685.44;;;19.69;52.67
79540;BME280;74475;52.122;5.406;2024-01-27T12:09:22;103676.03;;;19.76;52.56
79540;BME280;74475;52.122;5.406;2024-01-27T12:11:49;103692.06;;;19.84;51.80
79540;BME280;74475;52.122;5.406;2024-01-27T12:14:16;103686.28;;;19.92;52.30
79540;BME280;74475;52.122;5.406;2024-01-27T12:16:44;103675.16;;;19.96;52.08
79540;BME280;74475;52.122;5.406;2024-01-27T12:19:10;103674.97;;;20.01;52.28
79540;BME280;74475;52.122;5.406;2024-01-27T12:21:38;103670.16;;;20.06;52.04
79540;BME280;74475;52.122;5.406;2024-01-27T12:24:05;103670.88;;;20.11;52.13
79540;BME280;74475;52.122;5.406;2024-01-27T12:26:31;103669.78;;;20.15;52.07
79540;BME280;74475;52.122;5.406;2024-01-27T12:28:59;103656.94;;;20.17;51.89
79540;BME280;74475;52.122;5.406;2024-01-27T12:31:26;103663.13;;;20.20;51.89
79540;BME280;74475;52.122;5.406;2024-01-27T12:33:55;103669.34;;;20.24;51.69
79540;BME280;74475;52.122;5.406;2024-01-27T12:36:22;103666.56;;;20.25;51.50
79540;BME280;74475;52.122;5.406;2024-01-27T12:38:59;103671.03;;;20.28;51.51
79540;BME280;74475;52.122;5.406;2024-01-27T12:41:27;103670.00;;;20.30;51.32
79540;BME280;74475;52.122;5.406;2024-01-27T12:43:55;103673.56;;;20.32;51.65
79540;BME280;74475;52.122;5.406;2024-01-27T12:46:22;103677.09;;;20.34;51.41
79540;BME280;74475;52.122;5.406;2024-01-27T12:48:48;103686.13;;;20.37;51.51
79540;BME280;74475;52.122;5.406;2024-01-27T12:51:15;103679.69;;;20.38;51.61
79540;BME280;74475;52.122;5.406;2024-01-27T12:53:43;103687.88;;;20.38;51.40
79540;BME280;74475;52.122;5.406;2024-01-27T12:56:11;103685.09;;;20.39;51.39
79540;BME280;74475;52.122;5.406;2024-01-27T12:58:38;103684.16;;;20.40;51.38
79540;BME280;74475;52.122;5.406;2024-01-27T13:01:05;103677.69;;;20.41;50.93
79540;BME280;74475;52.122;5.406;2024-01-27T13:03:32;103673.13;;;20.42;51.53
79540;BME280;74475;52.122;5.406;2024-01-27T13:05:58;103661.16;;;20.44;51.30
79540;BME280;74475;52.122;5.406;2024-01-27T13:08:25;103657.31;;;20.48;51.33
79540;BME280;74475;52.122;5.406;2024-01-27T13:10:52;103657.19;;;20.51;50.92
79540;BME280;74475;52.122;5.406;2024-01-27T13:13:18;103658.81;;;20.55;51.08
79540;BME280;74475;52.122;5.406;2024-01-27T13:15:45;103656.91;;;20.57;51.03
79540;BME280;74475;52.122;5.406;2024-01-27T13:18:11;103660.44;;;20.59;50.76